createdAt,value
2022-11-05T00:01:06.443Z,98.14
2022-11-05T00:03:54.838Z,98.40
2022-11-05T00:06:41.051Z,98.47
2022-11-05T00:09:29.756Z,98.24
2022-11-05T00:12:21.983Z,98.49
2022-11-05T00:15:08.421Z,98.10
2022-11-05T00:17:36.580Z,98.34
2022-11-05T00:20:06.014Z,98.47
2022-11-05T00:22:52.161Z,98.42
2022-11-05T00:25:22.060Z,98.34
2022-11-05T00:27:52.473Z,98.26
2022-11-05T00:30:25.788Z,98.43
2022-11-05T00:32:54.113Z,98.32
2022-11-05T00:35:22.666Z,98.02
2022-11-05T00:37:53.186Z,97.86
2022-11-05T00:40:21.116Z,97.87
2022-11-05T00:43:07.487Z,98.22
2022-11-05T00:45:35.430Z,98.23
2022-11-05T00:48:21.801Z,98.76
2022-11-05T00:50:49.838Z,99.08
2022-11-05T00:53:17.723Z,99.17
2022-11-05T00:55:46.424Z,99.03
2022-11-05T00:58:19.328Z,98.45
2022-11-05T01:04:24.985Z,98.21
2022-11-05T01:06:53.497Z,98.30
2022-11-05T01:09:22.478Z,98.44
2022-11-05T01:12:10.530Z,98.64
2022-11-05T01:14:38.935Z,98.84
2022-11-05T01:17:07.261Z,98.94
2022-11-05T01:19:37.066Z,99.20
2022-11-05T01:22:07.246Z,99.21
2022-11-05T01:24:38.127Z,99.34
2022-11-05T01:27:07.566Z,99.32
2022-11-05T01:29:36.498Z,99.63
2022-11-05T01:32:05.191Z,99.60
2022-11-05T01:34:34.099Z,99.83
2022-11-05T01:37:01.865Z,99.95
2022-11-05T01:39:29.637Z,99.95
2022-11-05T01:41:58.855Z,100.00
2022-11-05T01:44:57.134Z,100.00
2022-11-05T01:47:43.006Z,100.00
2022-11-05T01:50:19.981Z,99.95
2022-11-05T01:52:52.466Z,99.97
2022-11-05T01:55:24.909Z,99.92
2022-11-05T01:57:56.528Z,99.79
2022-11-05T02:00:24.805Z,99.54
2022-11-05T02:02:52.771Z,99.65
2022-11-05T02:05:20.958Z,99.59
2022-11-05T02:07:49.457Z,99.79
2022-11-05T02:10:20.638Z,99.65
2022-11-05T02:12:48.791Z,99.70
2022-11-05T02:15:25.168Z,99.66
2022-11-05T02:18:24.998Z,99.67
2022-11-05T02:21:18.843Z,99.53
2022-11-05T02:24:24.373Z,99.60
2022-11-05T02:27:18.986Z,99.42
2022-11-05T02:29:56.974Z,99.44
2022-11-05T02:32:33.628Z,99.51
2022-11-05T02:35:27.231Z,99.53
2022-11-05T02:38:06.515Z,99.60
2022-11-05T02:40:46.916Z,99.71
2022-11-05T02:43:35.664Z,99.77
2022-11-05T02:46:06.125Z,99.95
2022-11-05T02:49:05.930Z,99.92
2022-11-05T02:51:51.481Z,100.00
2022-11-05T02:54:38.597Z,100.00
2022-11-05T02:57:07.080Z,100.00
2022-11-05T02:59:34.918Z,100.00
2022-11-05T03:02:04.645Z,100.00
2022-11-05T03:04:32.811Z,100.00
2022-11-05T03:07:30.793Z,100.00
2022-11-05T03:10:17.688Z,100.00
2022-11-05T03:13:01.094Z,100.00
2022-11-05T03:15:47.002Z,100.00
2022-11-05T03:18:33.543Z,100.00
2022-11-05T03:21:05.449Z,100.00
2022-11-05T03:23:46.701Z,100.00
2022-11-05T03:26:29.794Z,100.00
2022-11-05T03:29:02.510Z,100.00
2022-11-05T03:31:31.246Z,100.00
2022-11-05T03:34:01.183Z,100.00
2022-11-05T03:36:34.404Z,100.00
2022-11-05T03:39:09.651Z,100.00
2022-11-05T03:41:43.224Z,100.00
2022-11-05T03:44:15.916Z,100.00
2022-11-05T03:46:49.393Z,100.00
2022-11-05T03:49:25.342Z,100.00
2022-11-05T03:52:06.944Z,100.00
2022-11-05T03:54:35.745Z,100.00
2022-11-05T03:57:09.089Z,100.00
2022-11-05T03:59:44.030Z,100.00
2022-11-05T04:02:13.620Z,100.00
2022-11-05T04:04:41.711Z,100.00
2022-11-05T04:07:29.548Z,100.00
2022-11-05T04:10:16.428Z,100.00
2022-11-05T04:13:02.427Z,100.00
2022-11-05T04:15:51.398Z,100.00
2022-11-05T04:18:19.128Z,100.00
2022-11-05T04:21:05.724Z,100.00
2022-11-05T04:23:51.877Z,100.00
2022-11-05T04:26:23.511Z,100.00
2022-11-05T04:29:10.704Z,100.00
2022-11-05T04:31:38.792Z,100.00
2022-11-05T04:34:06.562Z,100.00
2022-11-05T04:36:34.234Z,100.00
2022-11-05T04:39:02.404Z,100.00
2022-11-05T04:41:30.169Z,100.00
2022-11-05T04:43:57.906Z,100.00
2022-11-05T04:46:26.176Z,100.00
2022-11-05T04:48:53.930Z,100.00
2022-11-05T04:51:21.796Z,100.00
2022-11-05T04:53:50.027Z,100.00
2022-11-05T04:56:20.849Z,100.00
2022-11-05T04:58:48.986Z,100.00
2022-11-05T05:01:20.206Z,100.00
2022-11-05T05:03:53.301Z,100.00
2022-11-05T05:06:22.569Z,100.00
2022-11-05T05:08:51.337Z,100.00
2022-11-05T05:11:22.151Z,100.00
2022-11-05T05:13:50.897Z,100.00
2022-11-05T05:16:23.857Z,100.00
2022-11-05T05:18:52.755Z,100.00
2022-11-05T05:21:41.118Z,100.00
2022-11-05T05:24:18.549Z,100.00
2022-11-05T05:26:48.878Z,100.00
2022-11-05T05:29:18.248Z,100.00
2022-11-05T05:31:46.035Z,100.00
2022-11-05T05:34:14.761Z,100.00
2022-11-05T05:36:42.822Z,100.00
2022-11-05T05:39:11.117Z,100.00
2022-11-05T05:41:39.233Z,100.00
2022-11-05T05:44:07.282Z,100.00
2022-11-05T05:46:35.340Z,100.00
2022-11-05T05:49:07.876Z,100.00
2022-11-05T05:51:39.536Z,100.00
2022-11-05T05:54:07.968Z,100.00
2022-11-05T05:56:35.631Z,100.00
2022-11-05T05:59:08.503Z,100.00
2022-11-05T06:01:36.574Z,100.00
2022-11-05T06:04:04.688Z,100.00
2022-11-05T06:06:32.807Z,100.00
2022-11-05T06:09:00.858Z,99.73
2022-11-05T06:11:28.829Z,99.64
2022-11-05T06:13:57.637Z,99.62
2022-11-05T06:16:25.571Z,99.39
2022-11-05T06:18:53.558Z,99.11
2022-11-05T06:21:21.354Z,99.04
2022-11-05T06:23:49.998Z,99.03
2022-11-05T06:26:19.086Z,98.92
2022-11-05T06:28:47.141Z,98.77
2022-11-05T06:31:16.777Z,98.65
2022-11-05T06:33:44.843Z,98.45
2022-11-05T06:36:18.282Z,98.61
2022-11-05T06:38:47.345Z,98.36
2022-11-05T06:41:15.820Z,98.29
2022-11-05T06:43:44.004Z,98.07
2022-11-05T06:46:12.460Z,98.11
2022-11-05T06:48:40.562Z,97.77
2022-11-05T06:51:09.420Z,97.82
2022-11-05T06:53:37.316Z,97.63
2022-11-05T06:56:06.665Z,97.66
2022-11-05T06:58:34.714Z,97.46
2022-11-05T07:01:04.725Z,97.46
2022-11-05T07:03:32.931Z,97.39
2022-11-05T07:06:01.641Z,97.40
2022-11-05T07:08:34.030Z,97.49
2022-11-05T07:11:02.097Z,97.41
2022-11-05T07:13:30.340Z,97.61
2022-11-05T07:15:58.179Z,97.62
2022-11-05T07:18:26.242Z,97.50
2022-11-05T07:20:54.169Z,97.41
2022-11-05T07:23:21.948Z,97.56
2022-11-05T07:25:49.908Z,97.36
2022-11-05T07:28:17.863Z,97.31
2022-11-05T07:30:45.713Z,97.41
2022-11-05T07:33:15.043Z,97.33
2022-11-05T07:35:42.990Z,97.44
2022-11-05T07:38:11.237Z,97.30
2022-11-05T07:40:39.389Z,97.24
2022-11-05T07:43:08.858Z,97.35
2022-11-05T07:45:36.861Z,97.19
2022-11-05T07:48:05.412Z,97.06
2022-11-05T07:50:35.654Z,96.91
2022-11-05T07:53:06.184Z,96.55
2022-11-05T07:55:34.869Z,96.33
2022-11-05T07:58:03.203Z,96.13
2022-11-05T08:00:31.039Z,96.18
2022-11-05T08:03:07.720Z,96.03
2022-11-05T08:05:41.271Z,95.50
2022-11-05T08:08:10.201Z,95.68
2022-11-05T08:10:38.916Z,95.49
2022-11-05T08:13:07.638Z,95.43
2022-11-05T08:15:36.536Z,95.13
2022-11-05T08:18:07.268Z,94.86
2022-11-05T08:20:36.101Z,94.66
2022-11-05T08:23:04.616Z,94.41
2022-11-05T08:25:32.486Z,93.81
2022-11-05T08:28:02.744Z,94.11
2022-11-05T08:30:32.057Z,94.02
2022-11-05T08:33:02.794Z,93.33
2022-11-05T08:35:31.389Z,92.94
2022-11-05T08:38:00.705Z,92.60
2022-11-05T08:40:29.695Z,92.55
2022-11-05T08:42:58.480Z,92.16
2022-11-05T08:45:27.332Z,92.41
2022-11-05T08:48:18.118Z,92.01
2022-11-05T08:50:48.330Z,92.23
2022-11-05T08:53:16.873Z,91.69
2022-11-05T08:55:47.568Z,92.07
2022-11-05T08:58:19.071Z,91.68
2022-11-05T09:00:49.696Z,91.28
2022-11-05T09:03:17.852Z,90.02
2022-11-05T09:05:46.346Z,90.44
2022-11-05T09:08:18.982Z,90.24
2022-11-05T09:10:49.749Z,90.64
2022-11-05T09:13:19.864Z,90.05
2022-11-05T09:15:49.691Z,90.21
2022-11-05T09:18:19.096Z,89.32
2022-11-05T09:20:47.629Z,88.72
2022-11-05T09:23:15.878Z,88.48
2022-11-05T09:25:45.654Z,88.00
2022-11-05T09:28:20.397Z,88.36
2022-11-05T09:30:52.717Z,88.08
2022-11-05T09:33:23.449Z,88.36
2022-11-05T09:35:53.865Z,87.83
2022-11-05T09:38:21.892Z,87.23
2022-11-05T09:41:01.732Z,87.53
2022-11-05T09:43:43.931Z,87.85
2022-11-05T09:46:18.834Z,86.24
2022-11-05T09:48:54.410Z,85.23
2022-11-05T09:51:24.317Z,85.71
2022-11-05T09:53:54.738Z,85.73
2022-11-05T09:56:29.448Z,84.31
2022-11-05T09:59:02.587Z,84.25
2022-11-05T10:01:38.186Z,83.94
2022-11-05T10:04:10.155Z,83.99
2022-11-05T10:06:48.859Z,83.84
2022-11-05T10:09:29.085Z,84.58
2022-11-05T10:12:11.800Z,84.39
2022-11-05T10:15:14.546Z,83.50
2022-11-05T10:17:47.834Z,82.91
2022-11-05T10:20:22.279Z,83.88
2022-11-05T10:23:00.591Z,84.23
2022-11-05T10:25:32.996Z,83.93
2022-11-05T10:28:01.582Z,83.67
2022-11-05T10:30:29.764Z,83.33
2022-11-05T10:33:00.680Z,83.32
2022-11-05T10:35:33.286Z,82.47
2022-11-05T10:38:02.404Z,82.33
2022-11-05T10:40:57.688Z,81.83
2022-11-05T10:43:34.542Z,81.74
2022-11-05T10:46:24.153Z,81.56
2022-11-05T10:49:12.069Z,81.35
2022-11-05T10:51:40.014Z,81.26
2022-11-05T10:54:19.376Z,81.48
2022-11-05T10:56:47.615Z,81.65
2022-11-05T10:59:29.723Z,80.98
2022-11-05T11:02:04.356Z,81.46
2022-11-05T11:04:37.685Z,80.56
2022-11-05T11:07:17.139Z,80.06
2022-11-05T11:09:47.353Z,79.16
2022-11-05T11:12:26.048Z,79.44
2022-11-05T11:15:15.468Z,80.13
2022-11-05T11:17:43.198Z,79.26
2022-11-05T11:20:22.704Z,80.08
2022-11-05T11:23:16.972Z,80.19
2022-11-05T11:25:51.091Z,80.70
2022-11-05T11:28:34.952Z,78.58
2022-11-05T11:31:15.413Z,79.06
2022-11-05T11:33:49.537Z,79.05
2022-11-05T11:36:20.106Z,78.30
2022-11-05T11:38:48.097Z,78.10
2022-11-05T11:41:29.832Z,77.61
2022-11-05T11:44:04.741Z,77.42
2022-11-05T11:46:34.849Z,77.63
2022-11-05T11:49:04.227Z,77.65
2022-11-05T11:51:31.899Z,77.23
2022-11-05T11:54:01.209Z,77.62
2022-11-05T11:56:30.533Z,77.71
2022-11-05T11:59:19.428Z,77.65
2022-11-05T12:02:22.018Z,76.24
2022-11-05T12:05:08.301Z,74.82
2022-11-05T12:07:52.757Z,74.67
2022-11-05T12:10:55.101Z,74.72
2022-11-05T12:13:23.387Z,74.50
2022-11-05T12:16:09.808Z,73.54
2022-11-05T12:18:42.423Z,73.75
2022-11-05T12:21:50.913Z,73.55
2022-11-05T12:24:28.129Z,72.00
2022-11-05T12:26:59.145Z,72.45
2022-11-05T12:29:47.877Z,73.34
2022-11-05T12:32:50.929Z,72.92
2022-11-05T12:35:53.357Z,72.82
2022-11-05T12:38:43.000Z,70.53
2022-11-05T12:41:22.676Z,69.16
2022-11-05T12:44:02.416Z,69.02
2022-11-05T12:46:57.887Z,67.78
2022-11-05T12:49:36.328Z,66.60
2022-11-05T12:52:16.855Z,65.69
2022-11-05T12:55:05.583Z,65.22
2022-11-05T12:57:38.844Z,64.25
2022-11-05T13:00:26.952Z,63.91
2022-11-05T13:02:57.723Z,63.63
2022-11-05T13:05:40.047Z,63.71
2022-11-05T13:08:33.377Z,64.13
2022-11-05T13:11:13.756Z,64.11
2022-11-05T13:13:54.403Z,63.49
2022-11-05T13:16:28.280Z,62.67
2022-11-05T13:19:20.532Z,61.54
2022-11-05T13:21:54.597Z,60.71
2022-11-05T13:24:32.009Z,61.24
2022-11-05T13:27:12.628Z,62.11
2022-11-05T13:29:55.546Z,61.38
2022-11-05T13:32:47.107Z,61.38
2022-11-05T13:35:26.041Z,61.76
2022-11-05T13:38:17.315Z,60.98
2022-11-05T13:41:11.268Z,61.13
2022-11-05T13:43:53.858Z,58.98
2022-11-05T13:47:09.313Z,58.88
2022-11-05T13:49:55.253Z,57.97
2022-11-05T13:52:41.461Z,58.05
2022-11-05T13:55:31.386Z,57.60
2022-11-05T13:58:33.368Z,57.70
2022-11-05T14:01:32.050Z,58.00
2022-11-05T14:04:00.638Z,58.77
2022-11-05T14:06:36.077Z,58.35
2022-11-05T14:09:09.909Z,58.97
2022-11-05T14:11:41.882Z,59.48
2022-11-05T14:14:23.173Z,59.45
2022-11-05T14:17:14.052Z,59.72
2022-11-05T14:20:04.436Z,59.81
2022-11-05T14:22:32.244Z,60.07
2022-11-05T14:25:02.170Z,60.07
2022-11-05T14:27:29.822Z,60.52
2022-11-05T14:29:57.807Z,60.65
2022-11-05T14:32:50.152Z,61.17
2022-11-05T14:35:17.880Z,61.32
2022-11-05T14:37:59.437Z,61.77
2022-11-05T14:40:44.323Z,61.99
2022-11-05T14:43:15.250Z,62.71
2022-11-05T14:46:06.591Z,62.99
2022-11-05T14:48:49.626Z,63.14
2022-11-05T14:51:30.153Z,63.08
2022-11-05T14:54:04.942Z,62.99
2022-11-05T14:56:44.007Z,63.07
2022-11-05T14:59:51.239Z,63.52
2022-11-05T15:02:24.011Z,63.91
2022-11-05T15:05:30.628Z,64.31
2022-11-05T15:07:59.780Z,64.84
2022-11-05T15:10:31.872Z,65.26
2022-11-05T15:13:06.153Z,65.77
2022-11-05T15:15:49.074Z,66.14
2022-11-05T15:18:28.203Z,66.51
2022-11-05T15:21:00.974Z,66.89
2022-11-05T15:23:46.648Z,67.45
2022-11-05T15:26:41.650Z,67.73
2022-11-05T15:29:19.598Z,68.09
2022-11-05T15:31:49.157Z,68.55
2022-11-05T15:34:29.998Z,68.84
2022-11-05T15:37:03.939Z,69.10
2022-11-05T15:39:40.692Z,69.39
2022-11-05T15:42:26.079Z,69.66
2022-11-05T15:44:59.109Z,70.01
2022-11-05T15:47:31.946Z,70.27
2022-11-05T15:50:02.036Z,70.49
2022-11-05T15:52:36.650Z,70.73
2022-11-05T15:55:13.342Z,70.78
2022-11-05T15:57:50.684Z,71.25
2022-11-05T16:00:28.076Z,71.54
2022-11-05T16:03:00.628Z,71.69
2022-11-05T16:05:32.873Z,71.88
2022-11-05T16:08:02.408Z,72.25
2022-11-05T16:10:32.421Z,72.18
2022-11-05T16:13:34.189Z,72.51
2022-11-05T16:16:05.972Z,72.66
2022-11-05T16:18:36.372Z,73.11
2022-11-05T16:21:08.092Z,73.21
2022-11-05T16:23:44.803Z,73.65
2022-11-05T16:29:39.030Z,73.86
2022-11-05T16:32:16.957Z,74.06
2022-11-05T16:34:53.936Z,74.24
2022-11-05T16:37:26.346Z,74.27
2022-11-05T16:39:54.124Z,74.82
2022-11-05T16:42:26.025Z,74.99
2022-11-05T16:44:55.399Z,75.24
2022-11-05T16:47:23.056Z,75.23
2022-11-05T16:49:51.077Z,75.59
2022-11-05T16:52:19.092Z,75.65
2022-11-05T16:54:46.854Z,75.94
2022-11-05T16:57:27.109Z,76.22
2022-11-05T16:59:56.067Z,76.20
2022-11-05T17:02:23.982Z,76.38
2022-11-05T17:04:53.003Z,76.58
2022-11-05T17:07:20.985Z,76.60
2022-11-05T17:09:48.721Z,76.83
2022-11-05T17:12:16.765Z,77.07
2022-11-05T17:14:44.598Z,77.25
2022-11-05T17:17:12.308Z,77.71
2022-11-05T17:19:44.080Z,77.73
2022-11-05T17:22:12.585Z,77.82
2022-11-05T17:24:40.376Z,78.02
2022-11-05T17:27:08.138Z,78.41
2022-11-05T17:29:35.951Z,78.42
2022-11-05T17:32:05.865Z,78.62
2022-11-05T17:34:33.600Z,78.96
2022-11-05T17:37:01.568Z,78.94
2022-11-05T17:39:31.849Z,79.33
2022-11-05T17:42:02.333Z,79.59
2022-11-05T17:44:30.146Z,79.70
2022-11-05T17:46:57.849Z,79.92
2022-11-05T17:49:25.595Z,80.17
2022-11-05T17:51:54.021Z,80.55
2022-11-05T17:54:21.765Z,80.62
2022-11-05T17:56:49.450Z,80.70
2022-11-05T17:59:17.428Z,80.84
2022-11-05T18:01:46.042Z,81.40
2022-11-05T18:04:15.467Z,81.36
2022-11-05T18:06:43.611Z,81.82
2022-11-05T18:09:12.905Z,81.93
2022-11-05T18:11:41.202Z,81.91
2022-11-05T18:14:09.763Z,81.94
2022-11-05T18:16:37.813Z,81.80
2022-11-05T18:19:05.843Z,81.82
2022-11-05T18:21:33.933Z,82.15
2022-11-05T18:24:06.043Z,81.95
2022-11-05T18:26:34.494Z,82.19
2022-11-05T18:29:03.787Z,82.29
2022-11-05T18:31:31.674Z,82.19
2022-11-05T18:34:00.149Z,82.25
2022-11-05T18:36:30.541Z,82.30
2022-11-05T18:39:01.712Z,82.46
2022-11-05T18:41:30.303Z,82.48
2022-11-05T18:43:59.969Z,82.37
2022-11-05T18:46:56.368Z,82.59
2022-11-05T18:49:17.067Z,82.58
2022-11-05T18:51:44.889Z,82.76
2022-11-05T18:54:12.684Z,82.70
2022-11-05T18:56:45.367Z,83.14
2022-11-05T19:02:08.476Z,83.05
2022-11-05T19:04:36.972Z,83.45
2022-11-05T19:07:06.069Z,83.31
2022-11-05T19:09:34.784Z,83.48
2022-11-05T19:12:04.100Z,83.31
2022-11-05T19:14:31.820Z,83.47
2022-11-05T19:17:01.202Z,83.62
2022-11-05T19:19:29.308Z,83.73
2022-11-05T19:21:56.975Z,83.88
2022-11-05T19:24:24.984Z,84.20
2022-11-05T19:26:52.999Z,84.11
2022-11-05T19:29:20.748Z,84.16
2022-11-05T19:31:48.839Z,84.44
2022-11-05T19:34:16.537Z,84.50
2022-11-05T19:36:44.464Z,84.64
2022-11-05T19:39:14.520Z,84.62
2022-11-05T19:41:42.551Z,84.67
2022-11-05T19:44:10.396Z,84.88
2022-11-05T19:46:38.618Z,84.97
2022-11-05T19:49:06.339Z,85.08
2022-11-05T19:51:34.353Z,85.11
2022-11-05T19:54:03.759Z,85.08
2022-11-05T19:56:34.293Z,85.25
2022-11-05T19:59:03.439Z,85.62
2022-11-05T20:01:31.726Z,85.61
2022-11-05T20:04:02.522Z,85.53
2022-11-05T20:06:34.466Z,85.57
2022-11-05T20:09:23.010Z,85.76
2022-11-05T20:11:54.411Z,85.79
2022-11-05T20:14:23.948Z,85.94
2022-11-05T20:16:52.414Z,85.81
2022-11-05T20:19:22.147Z,86.17
2022-11-05T20:21:50.174Z,85.93
2022-11-05T20:24:24.791Z,86.32
2022-11-05T20:26:54.843Z,86.53
2022-11-05T20:29:24.141Z,86.50
2022-11-05T20:31:52.649Z,86.39
2022-11-05T20:34:20.421Z,86.50
2022-11-05T20:36:48.198Z,86.67
2022-11-05T20:39:18.297Z,87.25
2022-11-05T20:41:46.225Z,87.12
2022-11-05T20:44:14.083Z,87.60
2022-11-05T20:46:41.844Z,87.43
2022-11-05T20:49:09.810Z,87.65
2022-11-05T20:51:37.844Z,87.71
2022-11-05T20:54:08.937Z,87.74
2022-11-05T20:56:36.940Z,88.10
2022-11-05T20:59:05.627Z,88.22
2022-11-05T21:01:34.619Z,88.02
2022-11-05T21:04:03.165Z,87.94
2022-11-05T21:06:31.652Z,88.05
2022-11-05T21:08:59.525Z,87.98
2022-11-05T21:11:28.216Z,87.94
2022-11-05T21:13:55.949Z,88.08
2022-11-05T21:16:23.798Z,88.18
2022-11-05T21:18:51.731Z,88.37
2022-11-05T21:21:20.655Z,88.32
2022-11-05T21:23:48.542Z,88.27
2022-11-05T21:26:17.909Z,88.28
2022-11-05T21:28:46.847Z,88.47
2022-11-05T21:31:14.766Z,88.50
2022-11-05T21:33:42.685Z,89.09
2022-11-05T21:36:12.292Z,88.80
2022-11-05T21:38:40.989Z,88.94
2022-11-05T21:41:11.321Z,88.82
2022-11-05T21:43:39.664Z,89.12
2022-11-05T21:46:07.463Z,88.69
2022-11-05T21:48:36.348Z,88.86
2022-11-05T21:51:22.894Z,88.60
2022-11-05T21:54:09.776Z,89.10
2022-11-05T21:56:56.273Z,89.27
2022-11-05T21:59:43.729Z,89.22
2022-11-05T22:02:13.999Z,89.63
2022-11-05T22:04:48.726Z,89.52
2022-11-05T22:07:22.288Z,89.18
2022-11-05T22:09:50.340Z,89.47
2022-11-05T22:12:18.207Z,89.70
2022-11-05T22:14:45.949Z,89.55
2022-11-05T22:17:14.956Z,89.63
2022-11-05T22:19:42.700Z,89.60
2022-11-05T22:22:10.841Z,89.92
2022-11-05T22:24:39.695Z,89.85
2022-11-05T22:27:11.964Z,89.91
2022-11-05T22:29:40.156Z,89.53
2022-11-05T22:32:07.978Z,89.90
2022-11-05T22:34:35.725Z,89.81
2022-11-05T22:37:03.931Z,89.68
2022-11-05T22:39:31.999Z,89.93
2022-11-05T22:42:04.227Z,89.73
2022-11-05T22:44:35.186Z,89.82
2022-11-05T22:47:03.056Z,90.13
2022-11-05T22:49:30.894Z,89.81
2022-11-05T22:51:59.455Z,90.05
2022-11-05T22:54:27.287Z,89.81
2022-11-05T22:56:55.041Z,89.75
2022-11-05T22:59:23.042Z,90.01
2022-11-05T23:01:50.828Z,90.16
2022-11-05T23:04:18.673Z,90.34
2022-11-05T23:07:05.429Z,90.46
2022-11-05T23:09:53.402Z,90.34
2022-11-05T23:12:30.920Z,90.49
2022-11-05T23:15:00.067Z,90.74
2022-11-05T23:17:47.140Z,90.73
2022-11-05T23:20:38.470Z,90.69
2022-11-05T23:23:40.031Z,90.38
2022-11-05T23:26:28.004Z,90.58
2022-11-05T23:28:55.973Z,90.51
2022-11-05T23:31:42.456Z,90.22
2022-11-05T23:34:10.223Z,90.66
2022-11-05T23:37:10.259Z,90.57
2022-11-05T23:39:42.361Z,90.96
2022-11-05T23:42:29.578Z,90.82
2022-11-05T23:45:16.248Z,90.93
2022-11-05T23:48:02.487Z,90.94
2022-11-05T23:50:36.923Z,91.05
2022-11-05T23:53:06.954Z,91.09
2022-11-05T23:55:35.985Z,91.26
2022-11-05T23:58:03.738Z,91.36
